Terminal Aerodrome Forecast
Issued by NWS

Home | Current Version | Previous Version | Text Only | Print | Product List | Glossary On
Versions: 1 2 3 4 5 6 7 8 9 10 11 12 13 14 15 16 17 18 19 20 21
000
FTUS41 KBOX 231528 AAA
TAFBAF
TAF AMD
KBAF 231528Z 2315/2412 36017G33KT 4SM RA BR BKN015 OVC025
     FM231700 36012G26KT 6SM -SHRA BR OVC012
     FM232300 35011G23KT 5SM BR BKN015 OVC050
     FM240800 33009KT 6SM BR OVC020=

USA.gov is the U.S. government's official web portal to all federal, state and local government web resources and services.